UAAH/BXH METAR and TAF weather

Enter ICAO airport designator
Station Type Date Time Source
UAAH METAR 2019/10/10 11:00 UTC NOAA

UAAH 101100Z 22005MPS CAVOK 20/04 Q1017 NOSIG RMK QFE726/0968


Station Type Date Time Source
UAAH Decoded METAR 2019/10/10 11:00 UTC NOAA

Station name not available
Oct 10, 2019 - 07:00 AM EDT / 2019.10.10 1100 UTC
Wind: from the SW (220 degrees) at 11 MPH (10 KT):0
Visibility: greater than 7 mile(s):0
Temperature: 68 F (20 C)
Dew Point: 39 F (4 C)
Relative Humidity: 34%
Pressure (altimeter): 30.03 in. Hg (1017 hPa)
ob: UAAH 101100Z 22005MPS CAVOK 20/04 Q1017 NOSIG RMK QFE726/0968
cycle: 11

Station Type Date Time Source
UAAH TAF 2016/09/21 12:09 UTC NOAA

TAF
AMD TAF
AMD UAAH 211506Z 2112/2124 36006MPS CAVOK

Example: see airport list